createdAt,value
2022-10-31T00:02:59.041Z,6.95
2022-10-31T00:09:01.912Z,6.33
2022-10-31T00:15:03.462Z,6.72
2022-10-31T00:21:05.035Z,6.75
2022-10-31T00:27:06.671Z,6.50
2022-10-31T00:33:08.120Z,6.50
2022-10-31T00:39:09.587Z,6.57
2022-10-31T00:45:11.477Z,6.35
2022-10-31T00:51:13.086Z,6.10
2022-10-31T00:57:16.256Z,6.80
2022-10-31T01:03:17.989Z,6.68
2022-10-31T01:09:19.609Z,5.90
2022-10-31T01:15:22.376Z,6.00
2022-10-31T01:21:25.260Z,5.63
2022-10-31T01:27:26.782Z,6.33
2022-10-31T01:33:28.231Z,5.75
2022-10-31T01:39:29.697Z,5.60
2022-10-31T01:45:31.234Z,5.82
2022-10-31T01:51:34.966Z,5.72
2022-10-31T01:57:38.428Z,5.67
2022-10-31T02:03:39.885Z,5.72
2022-10-31T02:09:42.076Z,5.23
2022-10-31T02:15:45.089Z,5.85
2022-10-31T02:22:06.917Z,5.50
2022-10-31T02:28:27.455Z,5.70
2022-10-31T02:34:37.618Z,6.13
2022-10-31T02:40:45.149Z,5.53
2022-10-31T02:47:23.171Z,5.85
2022-10-31T02:53:24.936Z,5.63
2022-10-31T02:59:27.451Z,6.07
2022-10-31T03:05:49.226Z,5.75
2022-10-31T03:12:06.041Z,6.57
2022-10-31T03:18:40.206Z,5.85
2022-10-31T03:24:42.770Z,5.93
2022-10-31T03:30:45.165Z,5.93
2022-10-31T03:36:49.953Z,6.32
2022-10-31T03:42:54.388Z,5.87
2022-10-31T03:48:57.388Z,6.00
2022-10-31T03:55:07.599Z,5.50
2022-10-31T04:01:12.474Z,5.80
2022-10-31T04:07:15.890Z,5.68
2022-10-31T04:13:23.846Z,5.63
2022-10-31T04:19:33.742Z,5.97
2022-10-31T04:25:35.296Z,6.05
2022-10-31T04:31:37.218Z,6.17
2022-10-31T04:37:38.776Z,6.20
2022-10-31T04:43:40.342Z,6.20
2022-10-31T04:49:41.869Z,6.32
2022-10-31T04:55:45.589Z,6.35
2022-10-31T05:01:56.864Z,6.20
2022-10-31T05:08:20.669Z,6.43
2022-10-31T05:14:25.650Z,6.93
2022-10-31T05:20:45.483Z,6.13
2022-10-31T05:26:57.159Z,6.50
2022-10-31T05:32:59.449Z,6.37
2022-10-31T05:39:19.817Z,6.63
2022-10-31T05:45:24.587Z,6.73
2022-10-31T05:51:33.501Z,6.63
2022-10-31T05:57:35.281Z,6.53
2022-10-31T06:03:37.461Z,6.57
2022-10-31T06:09:41.354Z,6.10
2022-10-31T06:15:43.322Z,6.00
2022-10-31T06:21:44.817Z,6.55
2022-10-31T06:27:46.870Z,7.05
2022-10-31T06:33:49.901Z,6.67
2022-10-31T06:39:52.068Z,6.60
2022-10-31T06:45:53.998Z,6.57
2022-10-31T06:52:07.097Z,6.88
2022-10-31T06:58:10.582Z,6.95
2022-10-31T07:04:14.920Z,6.93
2022-10-31T07:10:16.500Z,8.10
2022-10-31T07:16:27.713Z,7.07
2022-10-31T07:22:36.236Z,6.68
2022-10-31T07:28:39.507Z,6.78
2022-10-31T07:34:46.559Z,6.53
2022-10-31T07:40:55.808Z,6.97
2022-10-31T07:46:58.625Z,6.33
2022-10-31T07:53:18.787Z,6.88
2022-10-31T07:59:35.029Z,7.32
2022-10-31T08:05:36.996Z,6.87
2022-10-31T08:12:04.969Z,7.10
2022-10-31T08:18:17.753Z,7.33
2022-10-31T08:24:19.339Z,7.15
2022-10-31T08:30:21.940Z,6.57
2022-10-31T08:36:45.826Z,6.63
2022-10-31T08:42:58.491Z,7.70
2022-10-31T08:49:00.019Z,7.20
2022-10-31T08:55:01.509Z,7.45
2022-10-31T09:01:21.779Z,7.78
2022-10-31T09:07:23.493Z,9.27
2022-10-31T09:13:27.953Z,9.82
2022-10-31T09:19:52.720Z,9.73
2022-10-31T09:25:54.754Z,11.05
2022-10-31T09:32:22.453Z,11.85
2022-10-31T09:38:24.557Z,13.50
2022-10-31T09:44:29.684Z,14.50
2022-10-31T09:50:49.369Z,16.13
2022-10-31T09:57:14.354Z,17.00
2022-10-31T10:03:36.509Z,15.68
2022-10-31T10:09:52.929Z,16.50
2022-10-31T10:16:41.194Z,17.13
2022-10-31T10:22:45.631Z,16.97
2022-10-31T10:28:58.714Z,17.77
2022-10-31T10:35:08.364Z,17.15
2022-10-31T10:41:19.975Z,17.13
2022-10-31T10:47:40.166Z,17.50
2022-10-31T10:54:07.995Z,17.13
2022-10-31T11:00:22.745Z,16.83
2022-10-31T11:06:26.809Z,17.40
2022-10-31T11:12:33.511Z,16.83
2022-10-31T11:18:40.161Z,22.05
2022-10-31T11:24:42.193Z,17.47
2022-10-31T11:30:45.715Z,18.45
2022-10-31T11:36:47.237Z,17.65
2022-10-31T11:42:49.601Z,15.93
2022-10-31T11:48:53.036Z,17.58
2022-10-31T11:54:56.286Z,17.53
2022-10-31T12:00:58.497Z,17.77
2022-10-31T12:07:00.370Z,16.45
2022-10-31T12:13:22.259Z,15.83
2022-10-31T12:19:36.002Z,15.65
2022-10-31T12:25:51.450Z,16.40
2022-10-31T12:32:12.456Z,17.80
2022-10-31T12:38:17.086Z,16.67
2022-10-31T12:44:21.478Z,16.73
2022-10-31T12:50:26.491Z,16.95
2022-10-31T12:56:35.917Z,16.70
2022-10-31T13:03:00.458Z,15.73
2022-10-31T13:09:03.888Z,18.98
2022-10-31T13:15:17.721Z,19.17
2022-10-31T13:21:23.733Z,18.30
2022-10-31T13:27:26.736Z,18.33
2022-10-31T13:33:30.997Z,17.42
2022-10-31T13:39:45.825Z,17.08
2022-10-31T13:45:51.905Z,17.10
2022-10-31T13:51:54.027Z,16.30
2022-10-31T13:57:55.522Z,17.00
2022-10-31T14:04:13.156Z,15.15
2022-10-31T14:10:23.654Z,15.40
2022-10-31T14:16:27.172Z,14.00
2022-10-31T14:22:32.493Z,14.80
2022-10-31T14:28:35.120Z,15.03
2022-10-31T14:34:38.333Z,15.45
2022-10-31T14:47:00.980Z,17.35
2022-10-31T14:53:04.451Z,18.87
2022-10-31T14:59:14.470Z,18.23
2022-10-31T15:05:16.356Z,19.00
2022-10-31T15:11:19.358Z,19.40
2022-10-31T15:17:21.690Z,19.27
2022-10-31T15:23:28.184Z,20.67
2022-10-31T15:29:30.395Z,20.30
2022-10-31T15:35:31.984Z,19.23
2022-10-31T15:41:54.752Z,19.63
2022-10-31T15:48:01.290Z,20.20
2022-10-31T15:54:03.131Z,19.97
2022-10-31T16:00:05.073Z,20.50
2022-10-31T16:06:07.037Z,21.15
2022-10-31T16:12:18.614Z,19.60
2022-10-31T16:18:23.132Z,20.88
2022-10-31T16:24:32.422Z,21.43
2022-10-31T16:30:47.960Z,21.05
2022-10-31T16:36:50.096Z,21.48
2022-10-31T16:42:51.707Z,21.53
2022-10-31T16:48:53.336Z,21.85
2022-10-31T16:54:55.534Z,22.97
2022-10-31T17:00:57.526Z,24.05
2022-10-31T17:06:59.071Z,26.25
2022-10-31T17:13:03.082Z,25.83
2022-10-31T17:19:04.525Z,30.70
2022-10-31T17:25:06.292Z,31.73
2022-10-31T17:31:13.092Z,28.00
2022-10-31T17:37:14.761Z,31.23
2022-10-31T17:43:16.257Z,28.47
2022-10-31T17:49:17.714Z,36.22
2022-10-31T17:55:19.733Z,34.83
2022-10-31T18:01:21.346Z,33.17
2022-10-31T18:07:22.866Z,31.73
2022-10-31T18:13:24.498Z,30.23
2022-10-31T18:19:25.958Z,30.02
2022-10-31T18:25:27.458Z,30.80
2022-10-31T18:31:29.071Z,30.02
2022-10-31T18:37:30.729Z,33.35
2022-10-31T18:43:33.521Z,30.23
2022-10-31T18:49:36.462Z,29.95
2022-10-31T18:55:45.353Z,31.67
2022-10-31T19:01:51.063Z,29.77
2022-10-31T19:07:52.650Z,29.75
2022-10-31T19:13:54.324Z,30.10
2022-10-31T19:19:55.921Z,30.48
2022-10-31T19:26:00.603Z,29.67
2022-10-31T19:32:02.081Z,31.02
2022-10-31T19:38:04.061Z,28.75
2022-10-31T19:44:05.757Z,27.83
2022-10-31T19:50:07.630Z,27.67
2022-10-31T19:56:16.256Z,25.53
2022-10-31T20:02:20.835Z,24.90
2022-10-31T20:08:22.936Z,24.38
2022-10-31T20:14:24.502Z,23.37
2022-10-31T20:20:26.054Z,22.85
2022-10-31T20:26:28.136Z,23.33
2022-10-31T20:32:29.689Z,23.05
2022-10-31T20:38:31.378Z,23.05
2022-10-31T20:44:32.906Z,22.53
2022-10-31T20:50:34.387Z,23.92
2022-10-31T20:56:35.850Z,24.07
2022-10-31T21:02:43.697Z,23.77
2022-10-31T21:08:45.661Z,23.02
2022-10-31T21:14:47.150Z,22.90
2022-10-31T21:20:48.601Z,22.65
2022-10-31T21:26:51.092Z,22.17
2022-10-31T21:32:52.614Z,21.55
2022-10-31T21:38:54.657Z,19.63
2022-10-31T21:44:56.114Z,19.77
2022-10-31T21:50:57.600Z,20.02
2022-10-31T21:56:59.704Z,18.47
2022-10-31T22:03:01.138Z,18.48
2022-10-31T22:09:03.942Z,17.77
2022-10-31T22:15:05.544Z,16.80
2022-10-31T22:21:07.050Z,17.85
2022-10-31T22:27:08.599Z,18.17
2022-10-31T22:33:10.058Z,17.42
2022-10-31T22:39:13.062Z,17.02
2022-10-31T22:45:14.650Z,17.30
2022-10-31T22:51:17.546Z,19.60
2022-10-31T22:57:19.026Z,19.13
2022-10-31T23:03:20.506Z,17.98
2022-10-31T23:09:21.970Z,17.33
2022-10-31T23:15:23.426Z,17.47
2022-10-31T23:21:43.751Z,17.70
2022-10-31T23:27:45.221Z,17.50
2022-10-31T23:33:46.681Z,17.48
2022-10-31T23:39:48.470Z,16.92
2022-10-31T23:45:49.896Z,16.87
2022-10-31T23:51:51.325Z,17.92
2022-10-31T23:57:52.806Z,17.73
